Nelsonville, Wisconsin
Current Conditions -  °F | °C
As of 4:55 PM on Wednesday 26 Nov 2014 (Local Time) from KSTE Reporting Station
Haze Haze  
Wind Chill: 19°   Ceiling: 9000
Heat Index: 19°   Visibility: 4mi
Dew Point: 18°   Wind: 0mph
Humidity: 96%   Direction: NA
Pressure: 30.16"   Gusts: NA
Location:  44.49°N, 89.31°W
Report Text: KSTE 262255Z AUTO 00000KT 4SM BR OVC090 M07/M08 A3016 RMK AO2 T10731078
Loading
Personal Weather Stations






























Interactive Weather Map New forecast layout! Learn more

10-Day Weather Forecast

Advertisements
Track Severe Weather on mobile